Aérodrome :
LOGIN :

S'inscrire | Disclaimer

   EN    FR    IT 

 










Légende :    VFR   VFR Marginal   IFR   IFR Intensif   IFR Très Intensif
Visi : 
Plafond : 
>= 8 km
>= 3000ft
5 à 8 km
1000 à 3000 ft
1500m à 5 km
500 à 1000 ft
800 à 1500m
200 à 500 ft
< 800m
< 200 ft
Symboles :   Orages  Brouillard  Fortes neiges  Fortes précipitations  Vent > 20 kt
SIGMETs :   Divers  Orages  Givrage  Turbulence  Onde Orograph.  Cendres Volcan.






- Altitude de l'aérodrome : 44 ft
- Code IATA : SOU


EGHI - Southampton

DERNIER METAR :
  • 200750Z 02003KT 9999 FEW018 07/06 Q1009

METARs EXPIRÉS :
  • 200720Z VRB02KT 9999 SCT015 07/06 Q1009
  • 200620Z 01002KT 9999 FEW048 04/03 Q1008
  • 200550Z VRB02KT 9999 FEW048 04/03 Q1008

TAF TAF EGHI
Valide du 20 à 06h jusqu'au 20 à 15h UTC


200624Z 2006/2015 01007KT 9999 FEW045
PROB40 2006/2009 7000 BKN007
TEMPO 2009/2012 BKN012
ATIS : +44 23 8062 7103



MET'MAP, la Météo Aéronautique d'un coup d'oeil ! - Copyright ORBIFLY Décembre 2007 - Disclaimer

ORBIFLY MET'MAP TEAM :

Programmation & Développement : Alexandra Zaïnal
Conception & Développement : Baudouin d'Aumeries
Co-Programmation & Développement : Marc-Olivier Méhu
Soutien technique & logistique : Manuel Goepfert

Contact : metmap@orbifly.com




SOURCES & CREDITS :

   NOAA